Terminal Aerodrome Forecast
Issued by NWS Melbourne, FL

Home | Current Version | Previous Version | Text Only | Print | Product List | Glossary On
Versions: 1 2 3 4 5 6 7 8 9 10 11 12 13 14 15 16 17 18 19 20 21 22 23 24 25
000
FTUS42 KMLB 101100
TAFMCO
TAF
KMCO 101124Z 1012/1112 15003KT P6SM FEW025 FEW150 FEW250
     FM101400 VRB04KT P6SM FEW025 SCT200
     FM102000 12009KT P6SM VCTS SCT035CB SCT090 BKN250
     FM110000 15006KT P6SM VCSH SCT090 BKN150 OVC250
     FM110600 VRB03KT P6SM BKN250=

USA.gov is the U.S. government's official web portal to all federal, state and local government web resources and services.